createdAt,value
2018-09-11T00:00:37.110Z,67.28
2018-09-11T00:01:40.524Z,66.98
2018-09-11T00:02:43.897Z,67.10
2018-09-11T00:03:47.343Z,67.16
2018-09-11T00:04:50.743Z,67.12
2018-09-11T00:05:54.139Z,67.26
2018-09-11T00:06:57.588Z,67.24
2018-09-11T00:08:00.995Z,67.30
2018-09-11T00:09:06.876Z,67.05
2018-09-11T00:10:10.284Z,66.93
2018-09-11T00:11:13.754Z,67.01
2018-09-11T00:12:17.229Z,66.96
2018-09-11T00:13:20.582Z,67.06
2018-09-11T00:14:23.956Z,67.01
2018-09-11T00:15:27.396Z,66.92
2018-09-11T00:16:30.807Z,66.85
2018-09-11T00:17:34.266Z,67.00
2018-09-11T00:18:37.790Z,66.97
2018-09-11T00:19:41.227Z,66.79
2018-09-11T00:20:44.750Z,66.85
2018-09-11T00:21:48.163Z,66.89
2018-09-11T00:22:51.564Z,67.03
2018-09-11T00:23:54.940Z,66.59
2018-09-11T00:24:58.854Z,66.85
2018-09-11T00:26:02.283Z,66.75
2018-09-11T00:27:05.689Z,66.73
2018-09-11T00:28:09.090Z,66.84
2018-09-11T00:29:12.504Z,66.55
2018-09-11T00:30:15.884Z,66.96
2018-09-11T00:31:19.400Z,66.75
2018-09-11T00:32:22.852Z,66.82
2018-09-11T00:33:26.260Z,67.05
2018-09-11T00:34:29.653Z,66.94
2018-09-11T00:35:33.124Z,67.10
2018-09-11T00:36:36.580Z,67.41
2018-09-11T00:37:39.972Z,67.01
2018-09-11T00:38:43.348Z,67.29
2018-09-11T00:39:46.741Z,67.21
2018-09-11T00:40:50.144Z,67.30
2018-09-11T00:41:53.549Z,67.14
2018-09-11T00:42:56.939Z,67.13
2018-09-11T00:44:00.402Z,66.79
2018-09-11T00:45:03.863Z,66.81
2018-09-11T00:46:07.270Z,67.14
2018-09-11T00:47:11.156Z,67.23
2018-09-11T00:48:14.571Z,67.01
2018-09-11T00:49:17.944Z,67.12
2018-09-11T00:50:21.329Z,66.97
2018-09-11T00:51:24.735Z,66.96
2018-09-11T00:52:28.162Z,67.23
2018-09-11T00:53:31.814Z,67.26
2018-09-11T00:54:35.280Z,67.30
2018-09-11T00:55:38.716Z,67.21
2018-09-11T00:56:42.145Z,67.36
2018-09-11T00:57:45.544Z,67.25
2018-09-11T00:58:49.055Z,66.87
2018-09-11T00:59:52.460Z,67.07
2018-09-11T01:00:55.910Z,67.01
2018-09-11T01:01:59.334Z,67.27
2018-09-11T01:03:02.735Z,67.23
2018-09-11T01:04:06.253Z,67.16
2018-09-11T01:05:09.700Z,67.22
2018-09-11T01:06:13.339Z,67.30
2018-09-11T01:07:16.734Z,67.27
2018-09-11T01:08:20.167Z,67.40
2018-09-11T01:09:23.558Z,67.23
2018-09-11T01:10:27.006Z,67.03
2018-09-11T01:11:30.416Z,67.22
2018-09-11T01:12:33.899Z,67.31
2018-09-11T01:13:37.324Z,67.39
2018-09-11T01:14:40.720Z,67.38
2018-09-11T01:15:44.175Z,67.36
2018-09-11T01:16:47.600Z,67.42
2018-09-11T01:17:50.996Z,67.38
2018-09-11T01:18:54.423Z,67.36
2018-09-11T01:19:57.917Z,67.18
2018-09-11T01:21:01.330Z,67.31
2018-09-11T01:22:04.779Z,67.31
2018-09-11T01:23:08.186Z,67.50
2018-09-11T01:24:11.626Z,67.51
2018-09-11T01:25:15.028Z,67.42
2018-09-11T01:26:18.436Z,67.36
2018-09-11T01:27:21.828Z,67.41
2018-09-11T01:28:25.230Z,67.60
2018-09-11T01:29:28.628Z,67.43
2018-09-11T01:30:32.064Z,67.59
2018-09-11T01:31:35.658Z,67.35
2018-09-11T01:32:39.072Z,67.33
2018-09-11T01:33:42.491Z,67.26
2018-09-11T01:34:45.886Z,67.39
2018-09-11T01:35:49.316Z,67.64
2018-09-11T01:36:52.682Z,67.55
2018-09-11T01:37:56.069Z,67.40
2018-09-11T01:38:59.471Z,67.30
2018-09-11T01:40:02.889Z,67.54
2018-09-11T01:41:06.347Z,67.44
2018-09-11T01:42:09.744Z,67.57
2018-09-11T01:43:13.135Z,67.56
2018-09-11T01:44:16.550Z,67.53
2018-09-11T01:45:19.936Z,67.59
2018-09-11T01:46:23.355Z,67.44
2018-09-11T01:47:26.755Z,67.50
2018-09-11T01:48:30.195Z,67.60
2018-09-11T01:49:33.628Z,67.45
2018-09-11T01:50:37.029Z,67.51
2018-09-11T01:51:40.417Z,67.65
2018-09-11T01:52:43.825Z,67.68
2018-09-11T01:53:47.231Z,67.53
2018-09-11T01:54:50.644Z,67.25
2018-09-11T01:55:54.027Z,67.72
2018-09-11T01:56:57.393Z,67.35
2018-09-11T01:58:00.875Z,67.50
2018-09-11T01:59:04.489Z,67.76
2018-09-11T02:00:12.074Z,67.38
2018-09-11T02:01:15.569Z,67.74
2018-09-11T02:02:18.949Z,67.54
2018-09-11T02:03:22.319Z,67.49
2018-09-11T02:04:25.713Z,67.67
2018-09-11T02:05:29.094Z,67.58
2018-09-11T02:06:32.535Z,67.35
2018-09-11T02:07:35.924Z,67.86
2018-09-11T02:08:39.273Z,67.80
2018-09-11T02:09:42.666Z,67.62
2018-09-11T02:10:46.110Z,67.50
2018-09-11T02:11:49.520Z,67.56
2018-09-11T02:12:52.904Z,67.75
2018-09-11T02:13:56.324Z,67.66
2018-09-11T02:14:59.808Z,67.64
2018-09-11T02:16:03.239Z,67.66
2018-09-11T02:17:06.661Z,67.73
2018-09-11T02:18:10.119Z,67.69
2018-09-11T02:19:13.491Z,67.73
2018-09-11T02:20:16.934Z,67.58
2018-09-11T02:21:20.337Z,67.89
2018-09-11T02:22:23.741Z,68.02
2018-09-11T02:23:27.132Z,67.82
2018-09-11T02:24:30.540Z,67.81
2018-09-11T02:25:33.973Z,67.64
2018-09-11T02:26:37.361Z,68.14
2018-09-11T02:27:40.756Z,67.91
2018-09-11T02:28:44.160Z,67.72
2018-09-11T02:29:47.664Z,67.91
2018-09-11T02:30:51.100Z,67.71
2018-09-11T02:31:54.517Z,67.86
2018-09-11T02:32:57.917Z,67.67
2018-09-11T02:34:01.320Z,67.98
2018-09-11T02:35:04.820Z,67.93
2018-09-11T02:36:08.225Z,68.09
2018-09-11T02:37:11.641Z,67.94
2018-09-11T02:38:15.161Z,67.89
2018-09-11T02:39:18.604Z,68.06
2018-09-11T02:40:22.027Z,68.11
2018-09-11T02:41:25.437Z,67.82
2018-09-11T02:42:28.862Z,67.95
2018-09-11T02:43:32.356Z,67.86
2018-09-11T02:44:35.754Z,67.97
2018-09-11T02:45:39.240Z,67.98
2018-09-11T02:46:42.638Z,67.93
2018-09-11T02:47:45.990Z,67.92
2018-09-11T02:48:49.382Z,68.00
2018-09-11T02:49:52.836Z,68.09
2018-09-11T02:50:56.260Z,67.89
2018-09-11T02:51:59.721Z,67.88
2018-09-11T02:53:03.126Z,67.99
2018-09-11T02:54:06.576Z,68.20
2018-09-11T02:55:10.022Z,67.93
2018-09-11T02:56:13.432Z,68.16
2018-09-11T02:57:16.852Z,68.20
2018-09-11T02:58:20.225Z,68.15
2018-09-11T02:59:23.631Z,67.92
2018-09-11T03:00:27.014Z,68.02
2018-09-11T03:01:30.478Z,67.91
2018-09-11T03:02:33.919Z,68.25
2018-09-11T03:03:37.432Z,67.97
2018-09-11T03:04:40.852Z,68.05
2018-09-11T03:05:44.261Z,68.06
2018-09-11T03:06:47.652Z,68.30
2018-09-11T03:07:51.070Z,68.21
2018-09-11T03:08:54.472Z,68.11
2018-09-11T03:09:57.874Z,68.05
2018-09-11T03:11:01.319Z,68.45
2018-09-11T03:12:04.781Z,68.09
2018-09-11T03:13:08.194Z,68.19
2018-09-11T03:14:11.570Z,68.24
2018-09-11T03:15:14.950Z,68.31
2018-09-11T03:16:18.355Z,68.15
2018-09-11T03:17:21.757Z,67.93
2018-09-11T03:18:25.182Z,67.82
2018-09-11T03:19:28.584Z,68.37
2018-09-11T03:20:32.032Z,68.24
2018-09-11T03:21:35.447Z,68.41
2018-09-11T03:22:38.830Z,68.11
2018-09-11T03:23:42.263Z,68.09
2018-09-11T03:24:45.676Z,68.15
2018-09-11T03:25:49.057Z,68.18
2018-09-11T03:26:52.468Z,68.30
2018-09-11T03:27:55.871Z,67.98
2018-09-11T03:28:59.273Z,68.31
2018-09-11T03:30:02.679Z,68.25
2018-09-11T03:31:06.182Z,68.20
2018-09-11T03:32:09.888Z,68.28
2018-09-11T03:33:13.283Z,68.22
2018-09-11T03:34:16.708Z,67.87
2018-09-11T03:35:20.097Z,67.69
2018-09-11T03:36:23.543Z,68.25
2018-09-11T03:37:26.948Z,67.64
2018-09-11T03:38:31.073Z,68.12
2018-09-11T03:39:34.518Z,67.77
2018-09-11T03:40:37.937Z,67.86
2018-09-11T03:41:41.368Z,67.83
2018-09-11T03:42:44.809Z,67.68
2018-09-11T03:43:48.200Z,68.05
2018-09-11T03:44:51.604Z,67.94
2018-09-11T03:45:55.035Z,68.07
2018-09-11T03:46:58.459Z,68.09
2018-09-11T03:48:01.861Z,68.14
2018-09-11T03:49:05.359Z,68.12
2018-09-11T03:50:08.763Z,67.73
2018-09-11T03:51:12.141Z,67.91
2018-09-11T03:52:15.546Z,67.87
2018-09-11T03:53:18.994Z,67.90
2018-09-11T03:54:22.574Z,68.15
2018-09-11T03:55:26.007Z,68.13
2018-09-11T03:56:29.507Z,68.07
2018-09-11T03:57:32.941Z,68.10
2018-09-11T03:58:36.404Z,67.98
2018-09-11T03:59:40.220Z,67.95
2018-09-11T04:00:43.882Z,67.58
2018-09-11T04:01:47.356Z,67.97
2018-09-11T04:02:50.899Z,67.78
2018-09-11T04:03:54.346Z,67.87
2018-09-11T04:04:57.760Z,67.75
2018-09-11T04:06:01.329Z,67.95
2018-09-11T04:07:04.835Z,67.87
2018-09-11T04:08:08.254Z,67.99
2018-09-11T04:09:13.158Z,68.22
2018-09-11T04:10:16.602Z,68.29
2018-09-11T04:11:20.282Z,67.89
2018-09-11T04:12:23.729Z,67.97
2018-09-11T04:13:27.151Z,68.30
2018-09-11T04:14:30.596Z,68.18
2018-09-11T04:15:34.104Z,68.25
2018-09-11T04:16:37.675Z,68.26
2018-09-11T04:17:42.059Z,68.06
2018-09-11T04:18:45.538Z,68.25
2018-09-11T04:19:49.024Z,68.28
2018-09-11T04:20:52.499Z,68.18
2018-09-11T04:21:55.970Z,68.12
2018-09-11T04:22:59.468Z,68.39
2018-09-11T04:24:02.997Z,68.30
2018-09-11T04:25:06.535Z,68.22
2018-09-11T04:26:10.593Z,68.61
2018-09-11T04:27:14.045Z,67.94
2018-09-11T04:28:17.469Z,68.08
2018-09-11T04:29:20.860Z,68.00
2018-09-11T04:30:24.258Z,68.04
2018-09-11T04:31:28.031Z,68.20
2018-09-11T04:32:31.545Z,68.24
2018-09-11T04:33:35.502Z,68.12
2018-09-11T04:34:38.883Z,68.21
2018-09-11T04:35:42.381Z,68.16
2018-09-11T04:36:45.794Z,68.21
2018-09-11T04:37:49.340Z,67.90
2018-09-11T04:38:52.706Z,68.08
2018-09-11T04:39:56.105Z,68.04
2018-09-11T04:40:59.529Z,67.67
2018-09-11T04:42:03.049Z,68.01
2018-09-11T04:43:06.797Z,67.98
2018-09-11T04:44:10.178Z,67.84
2018-09-11T04:45:14.421Z,68.00
2018-09-11T04:46:17.847Z,68.01
2018-09-11T04:47:21.365Z,67.83
2018-09-11T04:48:24.771Z,68.04
2018-09-11T04:49:28.149Z,68.19
2018-09-11T04:50:31.607Z,67.88
2018-09-11T04:51:35.021Z,67.94
2018-09-11T04:52:38.391Z,67.97
2018-09-11T04:53:41.817Z,66.92
2018-09-11T04:54:45.295Z,65.54
2018-09-11T04:55:48.804Z,63.69
2018-09-11T04:56:52.418Z,64.22
2018-09-11T04:57:55.889Z,62.43
2018-09-11T04:58:59.285Z,62.61
2018-09-11T05:00:03.068Z,62.43
2018-09-11T05:01:06.450Z,61.87
2018-09-11T05:02:09.861Z,61.95
2018-09-11T05:03:13.264Z,61.67
2018-09-11T05:04:16.695Z,61.61
2018-09-11T05:05:20.455Z,62.35
2018-09-11T05:06:24.027Z,62.60
2018-09-11T05:07:27.471Z,62.51
2018-09-11T05:08:31.017Z,61.89
2018-09-11T05:09:34.471Z,61.57
2018-09-11T05:10:37.977Z,61.80
2018-09-11T05:11:41.360Z,62.26
2018-09-11T05:12:44.768Z,62.01
2018-09-11T05:13:48.303Z,62.10
2018-09-11T05:14:51.681Z,62.12
2018-09-11T05:15:55.111Z,62.21
2018-09-11T05:16:58.494Z,61.98
2018-09-11T05:18:01.978Z,61.11
2018-09-11T05:19:05.490Z,61.31
2018-09-11T05:20:08.828Z,60.77
2018-09-11T05:21:12.201Z,60.20
2018-09-11T05:22:15.604Z,60.36
2018-09-11T05:23:19.036Z,60.57
2018-09-11T05:24:22.431Z,60.83
2018-09-11T05:25:25.810Z,60.74
2018-09-11T05:26:29.259Z,60.19
2018-09-11T05:27:33.534Z,60.32
2018-09-11T05:28:36.930Z,59.91
2018-09-11T05:29:40.356Z,60.11
2018-09-11T05:30:43.748Z,59.82
2018-09-11T05:31:47.131Z,59.82
2018-09-11T05:32:50.789Z,59.39
2018-09-11T05:33:54.185Z,59.65
2018-09-11T05:34:57.596Z,59.28
2018-09-11T05:36:01.038Z,59.31
2018-09-11T05:37:05.254Z,59.40
2018-09-11T05:38:08.911Z,59.13
2018-09-11T05:39:12.452Z,58.80
2018-09-11T05:40:15.822Z,59.02
2018-09-11T05:41:19.236Z,59.24
2018-09-11T05:42:22.668Z,59.05
2018-09-11T05:43:26.077Z,58.99
2018-09-11T05:44:29.486Z,59.17
2018-09-11T05:45:33.057Z,59.65
2018-09-11T05:46:36.645Z,59.10
2018-09-11T05:47:40.126Z,58.73
2018-09-11T05:48:43.539Z,58.84
2018-09-11T05:49:46.941Z,58.54
2018-09-11T05:50:50.540Z,58.71
2018-09-11T05:51:53.969Z,58.38
2018-09-11T05:52:57.332Z,58.35
2018-09-11T05:54:01.582Z,58.41
2018-09-11T05:55:05.672Z,58.42
2018-09-11T05:56:09.220Z,58.42
2018-09-11T05:57:12.628Z,58.36
2018-09-11T05:58:16.069Z,57.96
2018-09-11T05:59:19.428Z,58.37
2018-09-11T06:00:22.820Z,58.34
2018-09-11T06:01:26.243Z,58.11
2018-09-11T06:02:29.668Z,58.45
2018-09-11T06:03:33.137Z,59.13
2018-09-11T06:04:36.575Z,58.87
2018-09-11T06:05:40.089Z,58.38
2018-09-11T06:06:43.406Z,58.19
2018-09-11T06:07:46.804Z,58.27
2018-09-11T06:08:50.204Z,58.56
2018-09-11T06:09:53.575Z,58.60
2018-09-11T06:10:57.034Z,59.06
2018-09-11T06:12:00.447Z,58.79
2018-09-11T06:13:03.854Z,58.64
2018-09-11T06:14:07.243Z,58.35
2018-09-11T06:15:10.648Z,58.53
2018-09-11T06:16:14.155Z,58.70
2018-09-11T06:17:17.638Z,58.61
2018-09-11T06:18:21.072Z,58.71
2018-09-11T06:19:24.532Z,58.27
2018-09-11T06:20:27.922Z,58.63
2018-09-11T06:21:31.428Z,58.86
2018-09-11T06:22:34.857Z,58.17
2018-09-11T06:23:38.263Z,58.33
2018-09-11T06:24:41.730Z,58.48
2018-09-11T06:25:45.328Z,58.79
2018-09-11T06:26:48.692Z,58.59
2018-09-11T06:27:52.121Z,58.50
2018-09-11T06:28:55.621Z,58.51
2018-09-11T06:29:59.020Z,59.04
2018-09-11T06:31:02.480Z,58.72
2018-09-11T06:32:05.921Z,58.89
2018-09-11T06:33:09.293Z,58.52
2018-09-11T06:34:12.708Z,58.77
2018-09-11T06:35:16.109Z,59.25
2018-09-11T06:36:19.496Z,58.66
2018-09-11T06:37:22.960Z,58.89
2018-09-11T06:38:26.354Z,59.24
2018-09-11T06:39:29.769Z,59.23
2018-09-11T06:40:33.391Z,58.85
2018-09-11T06:41:36.864Z,58.93
2018-09-11T06:42:40.322Z,59.16
2018-09-11T06:43:43.816Z,58.86
2018-09-11T06:44:47.233Z,59.13
2018-09-11T06:45:50.652Z,58.36
2018-09-11T06:46:54.080Z,58.32
2018-09-11T06:47:57.528Z,58.56
2018-09-11T06:49:00.963Z,58.58
2018-09-11T06:50:04.471Z,58.63
2018-09-11T06:51:07.950Z,59.11
2018-09-11T06:52:11.337Z,58.83
2018-09-11T06:53:14.862Z,58.58
2018-09-11T06:54:18.257Z,59.02
2018-09-11T06:55:21.753Z,59.44
2018-09-11T06:56:25.258Z,59.07
2018-09-11T06:57:28.904Z,59.02
2018-09-11T06:58:32.352Z,59.38
2018-09-11T06:59:35.786Z,59.06
2018-09-11T07:00:39.370Z,59.33
2018-09-11T07:01:42.836Z,58.91
2018-09-11T07:02:46.314Z,58.76
2018-09-11T07:03:49.752Z,58.99
2018-09-11T07:04:53.164Z,59.01
2018-09-11T07:05:56.591Z,59.46
2018-09-11T07:07:00.032Z,58.95
2018-09-11T07:08:03.472Z,59.25
2018-09-11T07:09:09.572Z,59.15
2018-09-11T07:10:12.984Z,59.53
2018-09-11T07:11:16.413Z,59.47
2018-09-11T07:12:19.815Z,59.14
2018-09-11T07:13:23.223Z,59.11
2018-09-11T07:14:26.820Z,59.19
2018-09-11T07:15:30.240Z,59.27
2018-09-11T07:16:33.656Z,59.01
2018-09-11T07:17:37.064Z,59.26
2018-09-11T07:18:40.470Z,59.32
2018-09-11T07:19:43.996Z,59.28
2018-09-11T07:20:47.371Z,59.98
2018-09-11T07:21:50.880Z,59.88
2018-09-11T07:22:54.262Z,59.97
2018-09-11T07:23:57.774Z,59.92
2018-09-11T07:25:01.197Z,59.60
2018-09-11T07:26:04.728Z,59.47
2018-09-11T07:27:08.168Z,59.20
2018-09-11T07:28:11.586Z,59.79
2018-09-11T07:29:15.072Z,59.78
2018-09-11T07:30:18.559Z,59.94
2018-09-11T07:31:22.038Z,59.98
2018-09-11T07:32:25.550Z,59.46
2018-09-11T07:33:28.903Z,60.21
2018-09-11T07:34:32.312Z,59.96
2018-09-11T07:35:35.753Z,59.81
2018-09-11T07:36:39.110Z,60.04
2018-09-11T07:37:42.505Z,60.02
2018-09-11T07:38:45.899Z,60.19
2018-09-11T07:39:49.325Z,60.39
2018-09-11T07:40:52.777Z,60.36
2018-09-11T07:41:56.208Z,60.58
2018-09-11T07:42:59.615Z,60.55
2018-09-11T07:44:03.065Z,60.65
2018-09-11T07:45:06.787Z,60.85
2018-09-11T07:46:10.198Z,61.35
2018-09-11T07:47:13.686Z,61.05
2018-09-11T07:48:17.320Z,61.32
2018-09-11T07:49:21.209Z,61.34
2018-09-11T07:50:24.843Z,61.11
2018-09-11T07:51:28.476Z,61.40
2018-09-11T07:52:32.170Z,61.57
2018-09-11T07:53:35.613Z,61.46
2018-09-11T07:54:39.039Z,61.81
2018-09-11T07:55:42.628Z,61.93
2018-09-11T07:56:46.084Z,62.06
2018-09-11T07:57:49.502Z,61.64
2018-09-11T07:58:52.988Z,61.57
2018-09-11T07:59:56.401Z,62.09
2018-09-11T08:00:59.823Z,61.78
2018-09-11T08:02:03.268Z,61.86
2018-09-11T08:03:07.005Z,61.53
2018-09-11T08:04:10.424Z,61.96
2018-09-11T08:05:13.955Z,61.91
2018-09-11T08:06:17.350Z,61.49
2018-09-11T08:07:20.805Z,61.38
2018-09-11T08:08:24.286Z,61.84
2018-09-11T08:09:27.690Z,61.72
2018-09-11T08:10:31.137Z,61.56
2018-09-11T08:11:34.662Z,61.53
2018-09-11T08:12:38.092Z,61.47
2018-09-11T08:13:41.553Z,61.73
2018-09-11T08:14:44.975Z,61.40
2018-09-11T08:15:48.819Z,61.36
2018-09-11T08:16:52.239Z,61.42
2018-09-11T08:17:55.700Z,61.25
2018-09-11T08:18:59.122Z,61.41
2018-09-11T08:20:02.542Z,61.26
2018-09-11T08:21:06.079Z,61.76
2018-09-11T08:22:09.470Z,61.73
2018-09-11T08:23:12.910Z,61.90
2018-09-11T08:24:16.326Z,61.25
2018-09-11T08:25:19.797Z,60.78
2018-09-11T08:26:23.233Z,61.37
2018-09-11T08:27:26.687Z,61.15
2018-09-11T08:28:30.129Z,61.88
2018-09-11T08:29:33.544Z,61.72
2018-09-11T08:30:36.899Z,61.01
2018-09-11T08:31:40.310Z,61.43
2018-09-11T08:32:43.722Z,61.46
2018-09-11T08:33:47.164Z,61.33
2018-09-11T08:34:50.598Z,61.14
2018-09-11T08:35:54.023Z,61.52
2018-09-11T08:36:57.433Z,61.45
2018-09-11T08:38:01.200Z,61.29
2018-09-11T08:39:06.927Z,61.03
2018-09-11T08:40:10.325Z,61.39
2018-09-11T08:41:13.907Z,61.07
2018-09-11T08:42:17.513Z,61.29
2018-09-11T08:43:20.878Z,61.38
2018-09-11T08:44:24.278Z,61.13
2018-09-11T08:45:27.724Z,61.40
2018-09-11T08:46:31.164Z,61.70
2018-09-11T08:47:34.597Z,62.11
2018-09-11T08:48:38.156Z,62.19
2018-09-11T08:49:41.608Z,61.89
2018-09-11T08:50:45.000Z,62.05
2018-09-11T08:51:48.412Z,62.01
2018-09-11T08:52:51.837Z,61.96
2018-09-11T08:53:55.268Z,61.61
2018-09-11T08:54:58.686Z,61.55
2018-09-11T08:56:02.289Z,62.04
2018-09-11T08:57:06.002Z,61.58
2018-09-11T08:58:09.422Z,61.59
2018-09-11T08:59:12.915Z,61.96
2018-09-11T09:00:16.362Z,61.68
2018-09-11T09:01:19.783Z,62.26
2018-09-11T09:02:23.210Z,61.74
2018-09-11T09:03:26.775Z,62.74
2018-09-11T09:04:30.166Z,61.56
2018-09-11T09:05:33.631Z,61.41
2018-09-11T09:06:37.026Z,62.05
2018-09-11T09:07:40.420Z,62.04
2018-09-11T09:08:44.261Z,61.94
2018-09-11T09:09:47.656Z,61.80
2018-09-11T09:10:51.096Z,61.69
2018-09-11T09:11:54.523Z,62.03
2018-09-11T09:12:57.977Z,61.73
2018-09-11T09:14:01.422Z,61.74
2018-09-11T09:15:05.043Z,61.81
2018-09-11T09:16:08.482Z,62.10
2018-09-11T09:17:11.916Z,62.10
2018-09-11T09:18:15.501Z,62.34
2018-09-11T09:19:18.960Z,62.00
2018-09-11T09:20:22.367Z,61.63
2018-09-11T09:21:25.847Z,62.03
2018-09-11T09:22:29.251Z,61.98
2018-09-11T09:23:32.763Z,62.19
2018-09-11T09:24:36.173Z,62.18
2018-09-11T09:25:39.732Z,62.26
2018-09-11T09:26:43.204Z,62.19
2018-09-11T09:27:46.590Z,62.16
2018-09-11T09:28:50.019Z,61.65
2018-09-11T09:29:53.530Z,62.15
2018-09-11T09:30:57.477Z,62.03
2018-09-11T09:32:00.976Z,62.29
2018-09-11T09:33:04.438Z,62.23
2018-09-11T09:34:07.830Z,62.18
2018-09-11T09:35:11.295Z,61.57
2018-09-11T09:36:14.698Z,61.93
2018-09-11T09:37:18.208Z,62.19
2018-09-11T09:38:21.604Z,61.88
2018-09-11T09:39:25.001Z,62.38
2018-09-11T09:40:28.513Z,61.75
2018-09-11T09:41:32.000Z,61.94
2018-09-11T09:42:35.437Z,62.00
2018-09-11T09:43:38.856Z,61.67
2018-09-11T09:44:42.273Z,61.65
2018-09-11T09:45:45.688Z,61.60
2018-09-11T09:46:49.095Z,62.30
2018-09-11T09:47:52.615Z,62.17
2018-09-11T09:48:56.024Z,61.95
2018-09-11T09:49:59.435Z,62.22
2018-09-11T09:51:02.863Z,61.80
2018-09-11T09:52:06.493Z,62.17
2018-09-11T09:53:09.941Z,62.12
2018-09-11T09:54:13.370Z,61.79
2018-09-11T09:55:16.801Z,62.09
2018-09-11T09:56:20.182Z,61.82
2018-09-11T09:57:23.592Z,61.93
2018-09-11T09:58:27.076Z,61.80
2018-09-11T09:59:30.519Z,61.78
2018-09-11T10:00:39.415Z,62.35
2018-09-11T10:01:48.069Z,61.99
2018-09-11T10:02:51.446Z,61.94
2018-09-11T10:03:54.858Z,62.04
2018-09-11T10:04:58.330Z,62.29
2018-09-11T10:06:01.690Z,61.93
2018-09-11T10:07:05.139Z,62.43
2018-09-11T10:08:08.547Z,62.34
2018-09-11T10:09:13.016Z,62.42
2018-09-11T10:10:16.396Z,62.38
2018-09-11T10:11:19.797Z,62.08
2018-09-11T10:12:23.295Z,62.53
2018-09-11T10:13:26.759Z,62.22
2018-09-11T10:14:30.168Z,61.97
2018-09-11T10:15:33.577Z,62.29
2018-09-11T10:16:37.138Z,62.64
2018-09-11T10:17:40.572Z,61.97
2018-09-11T10:18:43.939Z,61.99
2018-09-11T10:19:47.535Z,62.31
2018-09-11T10:20:50.914Z,62.24
2018-09-11T10:21:54.290Z,61.80
2018-09-11T10:22:57.719Z,62.22
2018-09-11T10:24:01.306Z,62.21
2018-09-11T10:25:04.724Z,61.92
2018-09-11T10:26:08.159Z,62.12
2018-09-11T10:27:12.021Z,62.56
2018-09-11T10:28:15.378Z,62.25
2018-09-11T10:29:18.729Z,62.26
2018-09-11T10:30:22.156Z,62.04
2018-09-11T10:31:25.593Z,62.32
2018-09-11T10:32:28.957Z,62.22
2018-09-11T10:33:32.362Z,62.22
2018-09-11T10:34:35.758Z,62.37
2018-09-11T10:35:40.338Z,62.00
2018-09-11T10:36:43.992Z,62.36
2018-09-11T10:37:47.520Z,62.15
2018-09-11T10:38:50.913Z,62.52
2018-09-11T10:39:54.352Z,61.92
2018-09-11T10:40:57.804Z,62.75
2018-09-11T10:42:01.205Z,62.33
2018-09-11T10:43:04.592Z,62.45
2018-09-11T10:44:08.136Z,62.33
2018-09-11T10:45:11.584Z,61.99
2018-09-11T10:46:15.001Z,62.27
2018-09-11T10:47:18.418Z,62.43
2018-09-11T10:48:21.810Z,62.53
2018-09-11T10:49:25.214Z,62.64
2018-09-11T10:50:28.651Z,62.35
2018-09-11T10:51:32.161Z,62.65
2018-09-11T10:52:35.545Z,62.48
2018-09-11T10:53:38.972Z,62.52
2018-09-11T10:54:42.500Z,62.64
2018-09-11T10:55:45.937Z,62.09
2018-09-11T10:56:49.369Z,62.73
2018-09-11T10:57:52.750Z,62.76
2018-09-11T10:58:56.192Z,62.29
2018-09-11T10:59:59.613Z,62.56
2018-09-11T11:01:03.017Z,62.46
2018-09-11T11:02:06.523Z,62.40
2018-09-11T11:03:09.963Z,62.04
2018-09-11T11:04:13.387Z,62.46
2018-09-11T11:05:16.784Z,62.18
2018-09-11T11:06:20.343Z,62.75
2018-09-11T11:07:23.925Z,62.60
2018-09-11T11:08:27.333Z,62.94
2018-09-11T11:09:30.753Z,62.93
2018-09-11T11:10:35.691Z,62.35
2018-09-11T11:11:39.433Z,62.77
2018-09-11T11:12:42.848Z,62.72
2018-09-11T11:13:46.270Z,62.29
2018-09-11T11:14:49.700Z,62.36
2018-09-11T11:15:53.099Z,62.34
2018-09-11T11:16:56.546Z,62.66
2018-09-11T11:18:00.087Z,62.73
2018-09-11T11:19:03.588Z,62.45
2018-09-11T11:20:07.058Z,62.64
2018-09-11T11:21:10.480Z,62.50
2018-09-11T11:22:13.929Z,62.21
2018-09-11T11:23:17.519Z,62.46
2018-09-11T11:24:20.899Z,62.68
2018-09-11T11:25:24.409Z,62.71
2018-09-11T11:26:27.845Z,62.25
2018-09-11T11:27:31.268Z,62.91
2018-09-11T11:28:34.725Z,62.97
2018-09-11T11:29:38.127Z,62.55
2018-09-11T11:30:41.516Z,62.65
2018-09-11T11:31:44.920Z,62.29
2018-09-11T11:32:48.282Z,62.37
2018-09-11T11:33:51.833Z,62.56
2018-09-11T11:34:55.213Z,62.27
2018-09-11T11:35:58.616Z,62.19
2018-09-11T11:37:02.045Z,62.02
2018-09-11T11:38:05.510Z,62.23
2018-09-11T11:39:10.284Z,62.40
2018-09-11T11:40:13.714Z,61.78
2018-09-11T11:41:17.516Z,61.95
2018-09-11T11:42:20.969Z,62.09
2018-09-11T11:43:24.381Z,61.96
2018-09-11T11:44:27.859Z,62.23
2018-09-11T11:45:31.295Z,61.79
2018-09-11T11:46:34.729Z,61.67
2018-09-11T11:47:38.142Z,61.98
2018-09-11T11:48:41.565Z,61.85
2018-09-11T11:49:44.999Z,61.81
2018-09-11T11:50:48.436Z,61.60
2018-09-11T11:51:51.865Z,61.66
2018-09-11T11:52:55.365Z,61.35
2018-09-11T11:53:58.768Z,61.83
2018-09-11T11:55:02.357Z,61.33
2018-09-11T11:56:06.279Z,61.53
2018-09-11T11:57:09.705Z,61.58
2018-09-11T11:58:13.101Z,61.25
2018-09-11T11:59:16.534Z,61.47
2018-09-11T12:00:19.963Z,62.21
2018-09-11T12:01:23.461Z,61.22
2018-09-11T12:02:26.821Z,61.10
2018-09-11T12:03:30.261Z,61.60
2018-09-11T12:04:33.692Z,61.52
2018-09-11T12:05:37.145Z,61.04
2018-09-11T12:06:40.568Z,61.62
2018-09-11T12:07:43.947Z,61.33
2018-09-11T12:08:47.385Z,61.34
2018-09-11T12:09:50.804Z,61.24
2018-09-11T12:10:54.209Z,61.54
2018-09-11T12:11:57.646Z,60.91
2018-09-11T12:13:01.507Z,61.37
2018-09-11T12:14:05.223Z,61.13
2018-09-11T12:15:08.686Z,61.09
2018-09-11T12:16:12.337Z,61.48
2018-09-11T12:17:15.806Z,61.25
2018-09-11T12:18:19.282Z,61.49
2018-09-11T12:19:22.900Z,61.00
2018-09-11T12:20:26.457Z,61.43
2018-09-11T12:21:29.883Z,61.32
2018-09-11T12:22:33.608Z,60.98
2018-09-11T12:23:37.698Z,61.59
2018-09-11T12:24:41.207Z,60.94
2018-09-11T12:25:44.665Z,61.11
2018-09-11T12:26:48.130Z,61.62
2018-09-11T12:27:51.572Z,61.42
2018-09-11T12:28:55.489Z,61.49
2018-09-11T12:29:58.885Z,61.13
2018-09-11T12:31:02.382Z,61.21
2018-09-11T12:32:05.916Z,61.15
2018-09-11T12:33:09.392Z,61.07
2018-09-11T12:34:12.817Z,61.25
2018-09-11T12:35:16.216Z,61.46
2018-09-11T12:36:19.631Z,61.52
2018-09-11T12:37:23.196Z,61.21
2018-09-11T12:38:26.629Z,61.59
2018-09-11T12:39:30.189Z,61.48
2018-09-11T12:40:33.597Z,61.32
2018-09-11T12:41:36.993Z,61.49
2018-09-11T12:42:40.408Z,61.32
2018-09-11T12:43:43.826Z,61.50
2018-09-11T12:44:47.230Z,61.23
2018-09-11T12:45:50.681Z,61.14
2018-09-11T12:46:54.143Z,61.41
2018-09-11T12:47:57.923Z,61.49
2018-09-11T12:49:00.987Z,61.12
2018-09-11T12:50:04.625Z,61.20
2018-09-11T12:51:08.063Z,61.29
2018-09-11T12:52:11.732Z,61.54
2018-09-11T12:53:15.166Z,61.73
2018-09-11T12:54:18.621Z,61.59
2018-09-11T12:55:22.052Z,61.11
2018-09-11T12:56:25.442Z,61.01
2018-09-11T12:57:28.839Z,61.44
2018-09-11T12:58:32.302Z,61.43
2018-09-11T12:59:35.729Z,61.54
2018-09-11T13:00:39.162Z,60.80
2018-09-11T13:01:42.595Z,60.83
2018-09-11T13:02:46.037Z,61.53
2018-09-11T13:03:49.431Z,61.58
2018-09-11T13:04:53.074Z,61.53
2018-09-11T13:05:56.667Z,61.18
2018-09-11T13:07:00.117Z,61.23
2018-09-11T13:08:03.570Z,61.49
2018-09-11T13:09:07.887Z,61.38
2018-09-11T13:10:11.313Z,61.03
2018-09-11T13:11:14.779Z,61.32
2018-09-11T13:12:18.229Z,61.10
2018-09-11T13:13:21.637Z,61.25
2018-09-11T13:14:25.048Z,60.98
2018-09-11T13:15:28.451Z,61.11
2018-09-11T13:16:31.891Z,60.97
2018-09-11T13:17:35.308Z,61.14
2018-09-11T13:18:38.820Z,61.18
2018-09-11T13:19:42.307Z,60.94
2018-09-11T13:20:45.790Z,61.25
2018-09-11T13:21:49.283Z,60.97
2018-09-11T13:22:52.764Z,61.34
2018-09-11T13:23:56.224Z,60.73
2018-09-11T13:24:59.634Z,61.30
2018-09-11T13:26:03.278Z,61.35
2018-09-11T13:27:06.862Z,61.09
2018-09-11T13:28:10.404Z,61.09
2018-09-11T13:29:13.921Z,61.18
2018-09-11T13:30:17.522Z,61.57
2018-09-11T13:31:20.981Z,61.21
2018-09-11T13:32:24.664Z,61.13
2018-09-11T13:33:28.106Z,61.52
2018-09-11T13:34:31.554Z,60.95
2018-09-11T13:35:34.995Z,61.24
2018-09-11T13:36:38.499Z,60.82
2018-09-11T13:37:41.956Z,61.57